createdAt,value
2018-10-19T00:00:48.416Z,16.7
2018-10-19T00:05:56.759Z,16.5
2018-10-19T00:11:05.028Z,16.5
2018-10-19T00:16:13.277Z,16.5
2018-10-19T00:21:21.599Z,16.4
2018-10-19T00:26:29.765Z,16.4
2018-10-19T00:31:38.016Z,16.3
2018-10-19T00:36:46.438Z,16.1
2018-10-19T00:41:54.823Z,16.1
2018-10-19T00:47:02.989Z,16
2018-10-19T00:57:19.488Z,15.9
2018-10-19T01:02:27.907Z,15.8
2018-10-19T01:07:36.193Z,15.7
2018-10-19T01:12:44.409Z,15.6
2018-10-19T01:23:01.128Z,15.4
2018-10-19T01:28:09.443Z,15.3
2018-10-19T01:33:17.721Z,15.2
2018-10-19T01:38:26.152Z,15.1
2018-10-19T01:48:42.807Z,15.1
2018-10-19T01:53:54.139Z,15
2018-10-19T01:58:59.625Z,15
2018-10-19T02:04:08.002Z,15.1
2018-10-19T02:09:16.308Z,15.1
2018-10-19T02:14:24.759Z,15
2018-10-19T02:19:33.179Z,15
2018-10-19T02:24:41.628Z,14.9
2018-10-19T02:29:49.844Z,14.9
2018-10-19T02:40:08.887Z,14.8
2018-10-19T02:45:15.827Z,14.6
2018-10-19T02:50:23.399Z,14.6
2018-10-19T02:55:31.906Z,14.7
2018-10-19T03:00:40.224Z,14.6
2018-10-19T03:05:48.704Z,14.6
2018-10-19T03:10:57.080Z,14.7
2018-10-19T03:16:05.352Z,14.7
2018-10-19T03:21:13.732Z,14.7
2018-10-19T03:31:30.596Z,14.9
2018-10-19T03:36:38.993Z,15
2018-10-19T03:41:47.360Z,15
2018-10-19T03:46:55.713Z,15.1
2018-10-19T03:52:04.079Z,15.1
2018-10-19T03:57:12.953Z,15.1
2018-10-19T04:02:20.825Z,15.2
2018-10-19T04:07:29.115Z,15.2
2018-10-19T04:12:37.575Z,15.3
2018-10-19T04:33:11.088Z,15.3
2018-10-19T04:38:19.462Z,15.4
2018-10-19T04:43:27.791Z,15.3
2018-10-19T04:48:36.074Z,15.2
2018-10-19T04:53:44.416Z,15.3
2018-10-19T04:58:53.828Z,15.3
2018-10-19T05:04:01.222Z,15.3
2018-10-19T05:09:09.451Z,15.3
2018-10-19T05:14:17.811Z,15.3
2018-10-19T05:19:26.211Z,15.3
2018-10-19T05:24:34.577Z,15.3
2018-10-19T05:29:42.871Z,15.2
2018-10-19T05:34:51.229Z,15.3
2018-10-19T05:39:59.637Z,15.3
2018-10-19T05:50:16.378Z,15.3
2018-10-19T05:55:24.645Z,15.3
2018-10-19T06:15:58.028Z,15.3
2018-10-19T06:21:06.394Z,15.3
2018-10-19T06:26:15.341Z,15.4
2018-10-19T06:31:23.100Z,15.6
2018-10-19T06:36:31.459Z,15.6
2018-10-19T06:41:39.789Z,15.8
2018-10-19T07:02:13.079Z,16.2
2018-10-19T07:12:29.668Z,16.4
2018-10-19T07:17:37.963Z,16.5
2018-10-19T07:22:46.177Z,16.7
2018-10-19T07:27:54.436Z,16.9
2018-10-19T07:33:02.739Z,17.3
2018-10-19T07:38:10.979Z,17.6
2018-10-19T07:48:27.301Z,18.1
2018-10-19T07:53:35.491Z,18.5
2018-10-19T07:58:43.574Z,18.9
2018-10-19T08:03:51.769Z,19.5
2018-10-19T08:08:59.848Z,20.1
2018-10-19T08:14:07.877Z,20.9
2018-10-19T08:19:15.859Z,21.8
2018-10-19T08:24:23.769Z,22.8
2018-10-19T08:29:31.560Z,23.4
2018-10-19T08:34:39.395Z,23.6
2018-10-19T08:39:47.253Z,24.3
2018-10-19T08:44:55.096Z,25.1
2018-10-19T08:50:02.787Z,25.8
2018-10-19T08:55:10.373Z,26.5
2018-10-19T09:00:18.111Z,27.4
2018-10-19T09:05:25.613Z,28.5
2018-10-19T09:10:33.112Z,29.6
2018-10-19T09:15:40.416Z,30.6
2018-10-19T09:20:47.782Z,31.7
2018-10-19T09:31:02.393Z,33.3
2018-10-19T09:41:16.629Z,34.6
2018-10-19T09:46:23.736Z,35.2
2018-10-19T09:56:37.907Z,36.4
2018-10-19T10:06:51.820Z,37.4
2018-10-19T10:11:58.850Z,37.8
2018-10-19T10:17:05.688Z,38.2
2018-10-19T10:22:12.700Z,38.5
2018-10-19T10:27:19.634Z,38.2
2018-10-19T10:32:26.503Z,37.6
2018-10-19T10:37:33.461Z,37.1
2018-10-19T10:42:40.286Z,37
2018-10-19T10:47:47.305Z,36.7
2018-10-19T10:52:54.314Z,36.4
2018-10-19T10:58:01.297Z,36.4
2018-10-19T11:03:08.330Z,36.6
2018-10-19T11:18:29.267Z,37.8
2018-10-19T11:23:36.118Z,38.1
2018-10-19T11:28:43.006Z,38.6
2018-10-19T11:33:50.000Z,38.9
2018-10-19T11:38:56.688Z,39.1
2018-10-19T11:44:03.579Z,39.3
2018-10-19T11:49:10.442Z,39.5
2018-10-19T11:54:17.152Z,39.6
2018-10-19T11:59:24.037Z,39.6
2018-10-19T12:04:30.826Z,39.5
2018-10-19T12:09:37.622Z,39.4
2018-10-19T12:19:51.210Z,39.7
2018-10-19T12:24:57.942Z,39.6
2018-10-19T12:30:04.824Z,39.5
2018-10-19T12:40:18.508Z,39.4
2018-10-19T12:45:25.243Z,39.3
2018-10-19T12:55:39.075Z,39.1
2018-10-19T13:10:59.369Z,38.7
2018-10-19T13:16:06.248Z,38.4
2018-10-19T13:21:13.258Z,37.8
2018-10-19T13:26:20.092Z,36.9
2018-10-19T13:31:26.980Z,36.1
2018-10-19T13:36:34.052Z,35.3
2018-10-19T13:46:48.164Z,33.8
2018-10-19T13:51:55.304Z,33.2
2018-10-19T14:02:09.692Z,31.9
2018-10-19T14:07:16.890Z,31.5
2018-10-19T14:12:24.222Z,30.9
2018-10-19T14:17:31.572Z,30.5
2018-10-19T14:22:38.876Z,30.2
2018-10-19T14:27:46.247Z,29.8
2018-10-19T14:38:01.048Z,29.4
2018-10-19T14:43:08.521Z,29
2018-10-19T14:48:15.891Z,28.7
2018-10-19T14:53:23.385Z,28.5
2018-10-19T15:03:38.477Z,27.8
2018-10-19T15:08:46.008Z,27.6
2018-10-19T15:13:53.660Z,27.3
2018-10-19T15:19:01.157Z,26.8
2018-10-19T15:24:08.732Z,26.7
2018-10-19T15:29:16.465Z,26.5
2018-10-19T15:34:23.990Z,26.3
2018-10-19T15:44:39.288Z,26.1
2018-10-19T15:49:46.917Z,26.1
2018-10-19T15:54:54.635Z,25.8
2018-10-19T16:00:02.374Z,25.7
2018-10-19T16:05:09.991Z,25.6
2018-10-19T16:10:17.779Z,25.4
2018-10-19T16:15:25.549Z,25.2
2018-10-19T16:20:33.303Z,25
2018-10-19T16:30:48.739Z,24.6
2018-10-19T16:35:56.612Z,24.4
2018-10-19T16:46:12.180Z,24
2018-10-19T16:51:20.042Z,23.8
2018-10-19T16:56:27.873Z,23.5
2018-10-19T17:01:35.731Z,23.3
2018-10-19T17:06:43.608Z,23.1
2018-10-19T17:11:51.424Z,23
2018-10-19T17:16:59.393Z,22.7
2018-10-19T17:22:07.300Z,22.5
2018-10-19T17:27:15.158Z,22.4
2018-10-19T17:32:23.154Z,22.2
2018-10-19T17:37:31.196Z,22.1
2018-10-19T17:42:39.072Z,21.8
2018-10-19T17:47:47.008Z,21.8
2018-10-19T17:52:55.103Z,21.6
2018-10-19T18:08:18.854Z,21.1
2018-10-19T18:13:26.921Z,21
2018-10-19T18:18:35.301Z,20.9
2018-10-19T18:23:42.904Z,20.6
2018-10-19T18:28:53.849Z,20.5
2018-10-19T18:34:00.957Z,20.4
2018-10-19T18:39:07.060Z,20.2
2018-10-19T18:44:15.068Z,20.1
2018-10-19T18:54:31.262Z,19.8
2018-10-19T18:59:39.333Z,19.7
2018-10-19T19:04:47.490Z,19.7
2018-10-19T19:09:55.582Z,19.5
2018-10-19T19:15:03.569Z,19.4
2018-10-19T19:20:11.772Z,19.2
2018-10-19T19:30:28.071Z,18.9
2018-10-19T19:35:36.188Z,18.8
2018-10-19T19:45:52.565Z,18.6
2018-10-19T19:56:09.135Z,18.3
2018-10-19T20:01:18.116Z,18.2
2018-10-19T20:11:33.488Z,18
2018-10-19T20:16:41.747Z,17.9
2018-10-19T20:21:49.685Z,17.7
2018-10-19T20:26:57.940Z,17.6
2018-10-19T20:32:06.127Z,17.5
2018-10-19T20:37:14.361Z,17.4
2018-10-19T20:42:22.606Z,17.2
2018-10-19T20:47:30.852Z,17.1
2018-10-19T20:52:39.156Z,17.1
2018-10-19T21:02:55.590Z,16.8
2018-10-19T21:08:03.840Z,16.7
2018-10-19T21:13:12.187Z,16.6
2018-10-19T21:18:20.444Z,16.6
2018-10-19T21:28:37.001Z,16.5
2018-10-19T21:33:45.223Z,16.5
2018-10-19T21:38:53.567Z,16.5
2018-10-19T21:44:01.883Z,16.4
2018-10-19T21:49:10.152Z,16.4
2018-10-19T21:54:18.404Z,16.3
2018-10-19T21:59:26.693Z,16.2
2018-10-19T22:04:35.021Z,16.1
2018-10-19T22:09:43.294Z,16.1
2018-10-19T22:14:51.640Z,16.1
2018-10-19T22:19:59.891Z,16.1
2018-10-19T22:25:09.130Z,16
2018-10-19T22:30:16.870Z,16
2018-10-19T22:40:33.569Z,15.8
2018-10-19T22:45:41.771Z,15.9
2018-10-19T22:55:58.461Z,15.8
2018-10-19T23:01:06.820Z,15.7
2018-10-19T23:11:23.480Z,15.5
2018-10-19T23:16:31.832Z,15.5
2018-10-19T23:21:40.174Z,15.5
2018-10-19T23:26:48.534Z,15.4
2018-10-19T23:31:56.876Z,15.4
2018-10-19T23:37:05.284Z,15.4
2018-10-19T23:42:15.840Z,15.3
2018-10-19T23:47:21.922Z,15.3
2018-10-19T23:52:30.287Z,15.3
